sensor_id;sensor_type;location;lat;lon;timestamp;temperature;humidity
4922;DHT22;16625;53.624;10.106;2023-07-31T00:01:50;14.10;99.90
4922;DHT22;16625;53.624;10.106;2023-07-31T00:04:17;14.00;99.90
4922;DHT22;16625;53.624;10.106;2023-07-31T00:06:44;14.50;99.90
4922;DHT22;16625;53.624;10.106;2023-07-31T00:09:11;14.50;99.90
4922;DHT22;16625;53.624;10.106;2023-07-31T00:11:37;14.50;99.90
4922;DHT22;16625;53.624;10.106;2023-07-31T00:14:04;14.00;99.90
4922;DHT22;16625;53.624;10.106;2023-07-31T00:16:31;14.80;99.90
4922;DHT22;16625;53.624;10.106;2023-07-31T00:19:00;14.40;99.90
4922;DHT22;16625;53.624;10.106;2023-07-31T00:21:27;14.40;99.90
4922;DHT22;16625;53.624;10.106;2023-07-31T00:23:54;14.30;99.90
4922;DHT22;16625;53.624;10.106;2023-07-31T00:26:21;13.70;99.90
4922;DHT22;16625;53.624;10.106;2023-07-31T00:28:48;13.80;99.90
4922;DHT22;16625;53.624;10.106;2023-07-31T00:31:15;14.00;99.90
4922;DHT22;16625;53.624;10.106;2023-07-31T00:33:42;14.00;99.90
4922;DHT22;16625;53.624;10.106;2023-07-31T00:36:10;14.90;99.90
4922;DHT22;16625;53.624;10.106;2023-07-31T00:38:37;14.60;99.90
4922;DHT22;16625;53.624;10.106;2023-07-31T00:41:04;14.30;99.90
4922;DHT22;16625;53.624;10.106;2023-07-31T00:43:31;14.20;99.90
4922;DHT22;16625;53.624;10.106;2023-07-31T00:45:58;13.70;99.90
4922;DHT22;16625;53.624;10.106;2023-07-31T00:48:25;13.70;99.90
4922;DHT22;16625;53.624;10.106;2023-07-31T00:50:53;14.40;99.90
4922;DHT22;16625;53.624;10.106;2023-07-31T00:53:21;14.20;99.90
4922;DHT22;16625;53.624;10.106;2023-07-31T00:55:52;14.40;99.90
4922;DHT22;16625;53.624;10.106;2023-07-31T00:58:19;13.70;99.90
4922;DHT22;16625;53.624;10.106;2023-07-31T01:00:46;14.20;99.90
4922;DHT22;16625;53.624;10.106;2023-07-31T01:03:13;14.10;99.90
4922;DHT22;16625;53.624;10.106;2023-07-31T01:05:46;14.30;99.90
4922;DHT22;16625;53.624;10.106;2023-07-31T01:08:22;14.40;99.90
4922;DHT22;16625;53.624;10.106;2023-07-31T01:10:56;14.10;99.90
4922;DHT22;16625;53.624;10.106;2023-07-31T01:13:25;14.40;99.90
4922;DHT22;16625;53.624;10.106;2023-07-31T01:15:53;13.50;99.90
4922;DHT22;16625;53.624;10.106;2023-07-31T01:18:20;14.00;99.90
4922;DHT22;16625;53.624;10.106;2023-07-31T01:20:52;14.50;99.90
4922;DHT22;16625;53.624;10.106;2023-07-31T01:23:38;14.40;99.90
4922;DHT22;16625;53.624;10.106;2023-07-31T01:26:16;13.40;99.90
4922;DHT22;16625;53.624;10.106;2023-07-31T01:28:51;14.30;99.90
4922;DHT22;16625;53.624;10.106;2023-07-31T01:31:23;13.60;99.90
4922;DHT22;16625;53.624;10.106;2023-07-31T01:33:53;13.90;99.90
4922;DHT22;16625;53.624;10.106;2023-07-31T01:36:20;13.80;99.90
4922;DHT22;16625;53.624;10.106;2023-07-31T01:38:47;13.40;99.90
4922;DHT22;16625;53.624;10.106;2023-07-31T01:41:18;14.20;99.90
4922;DHT22;16625;53.624;10.106;2023-07-31T01:43:45;13.20;99.90
4922;DHT22;16625;53.624;10.106;2023-07-31T01:46:12;14.20;99.90
4922;DHT22;16625;53.624;10.106;2023-07-31T01:48:39;13.30;99.90
4922;DHT22;16625;53.624;10.106;2023-07-31T01:51:06;14.20;99.90
4922;DHT22;16625;53.624;10.106;2023-07-31T01:53:33;14.20;99.90
4922;DHT22;16625;53.624;10.106;2023-07-31T01:56:00;13.40;99.90
4922;DHT22;16625;53.624;10.106;2023-07-31T01:58:28;13.70;99.90
4922;DHT22;16625;53.624;10.106;2023-07-31T02:00:55;14.50;99.90
4922;DHT22;16625;53.624;10.106;2023-07-31T02:03:23;13.50;99.90
4922;DHT22;16625;53.624;10.106;2023-07-31T02:05:50;13.60;99.90
4922;DHT22;16625;53.624;10.106;2023-07-31T02:08:17;14.30;99.90
4922;DHT22;16625;53.624;10.106;2023-07-31T02:10:44;14.50;99.90
4922;DHT22;16625;53.624;10.106;2023-07-31T02:13:11;13.90;99.90
4922;DHT22;16625;53.624;10.106;2023-07-31T02:15:39;14.80;99.90
4922;DHT22;16625;53.624;10.106;2023-07-31T02:18:06;14.00;99.90
4922;DHT22;16625;53.624;10.106;2023-07-31T02:20:34;14.60;99.90
4922;DHT22;16625;53.624;10.106;2023-07-31T02:23:01;14.10;99.90
4922;DHT22;16625;53.624;10.106;2023-07-31T02:25:28;14.60;99.90
4922;DHT22;16625;53.624;10.106;2023-07-31T02:27:56;14.60;99.90
4922;DHT22;16625;53.624;10.106;2023-07-31T02:30:22;14.20;99.90
4922;DHT22;16625;53.624;10.106;2023-07-31T02:32:51;15.00;99.90
4922;DHT22;16625;53.624;10.106;2023-07-31T02:35:18;15.10;99.90
4922;DHT22;16625;53.624;10.106;2023-07-31T02:37:45;14.30;99.90
4922;DHT22;16625;53.624;10.106;2023-07-31T02:40:12;14.30;99.90
4922;DHT22;16625;53.624;10.106;2023-07-31T02:42:39;14.20;99.90
4922;DHT22;16625;53.624;10.106;2023-07-31T02:47:42;14.30;99.90
4922;DHT22;16625;53.624;10.106;2023-07-31T02:50:11;15.10;99.90
4922;DHT22;16625;53.624;10.106;2023-07-31T02:52:38;14.70;99.90
4922;DHT22;16625;53.624;10.106;2023-07-31T02:55:09;14.20;99.90
4922;DHT22;16625;53.624;10.106;2023-07-31T02:57:36;14.20;99.90
4922;DHT22;16625;53.624;10.106;2023-07-31T03:00:03;14.70;99.90
4922;DHT22;16625;53.624;10.106;2023-07-31T03:02:32;14.20;99.90
4922;DHT22;16625;53.624;10.106;2023-07-31T03:04:58;14.70;99.90
4922;DHT22;16625;53.624;10.106;2023-07-31T03:07:27;14.20;99.90
4922;DHT22;16625;53.624;10.106;2023-07-31T03:09:55;14.50;99.90
4922;DHT22;16625;53.624;10.106;2023-07-31T03:12:24;15.10;99.90
4922;DHT22;16625;53.624;10.106;2023-07-31T03:14:50;14.30;99.90
4922;DHT22;16625;53.624;10.106;2023-07-31T03:17:17;15.40;99.90
4922;DHT22;16625;53.624;10.106;2023-07-31T03:19:45;14.30;99.90
4922;DHT22;16625;53.624;10.106;2023-07-31T03:22:12;14.30;99.90
4922;DHT22;16625;53.624;10.106;2023-07-31T03:24:40;14.30;99.90
4922;DHT22;16625;53.624;10.106;2023-07-31T03:27:07;14.30;99.90
4922;DHT22;16625;53.624;10.106;2023-07-31T03:29:34;14.30;99.90
4922;DHT22;16625;53.624;10.106;2023-07-31T03:32:01;14.90;99.90
4922;DHT22;16625;53.624;10.106;2023-07-31T03:34:29;14.30;99.90
4922;DHT22;16625;53.624;10.106;2023-07-31T03:36:57;14.80;99.90
4922;DHT22;16625;53.624;10.106;2023-07-31T03:39:24;14.40;99.90
4922;DHT22;16625;53.624;10.106;2023-07-31T03:41:52;14.40;99.90
4922;DHT22;16625;53.624;10.106;2023-07-31T03:44:19;14.90;99.90
4922;DHT22;16625;53.624;10.106;2023-07-31T03:46:46;14.50;99.90
4922;DHT22;16625;53.624;10.106;2023-07-31T03:49:13;15.50;99.90
4922;DHT22;16625;53.624;10.106;2023-07-31T03:51:40;14.50;99.90
4922;DHT22;16625;53.624;10.106;2023-07-31T03:54:08;15.00;99.90
4922;DHT22;16625;53.624;10.106;2023-07-31T03:56:35;15.20;99.90
4922;DHT22;16625;53.624;10.106;2023-07-31T03:59:05;15.50;99.90
4922;DHT22;16625;53.624;10.106;2023-07-31T04:01:32;15.30;99.90
4922;DHT22;16625;53.624;10.106;2023-07-31T04:03:59;15.10;99.90
4922;DHT22;16625;53.624;10.106;2023-07-31T04:06:26;15.50;99.90
4922;DHT22;16625;53.624;10.106;2023-07-31T04:08:53;14.80;99.90
4922;DHT22;16625;53.624;10.106;2023-07-31T04:11:23;14.80;99.90
4922;DHT22;16625;53.624;10.106;2023-07-31T04:13:50;14.90;99.90
4922;DHT22;16625;53.624;10.106;2023-07-31T04:16:19;15.40;99.90
4922;DHT22;16625;53.624;10.106;2023-07-31T04:18:46;15.60;99.90
4922;DHT22;16625;53.624;10.106;2023-07-31T04:21:13;15.50;99.90
4922;DHT22;16625;53.624;10.106;2023-07-31T04:23:40;14.90;99.90
4922;DHT22;16625;53.624;10.106;2023-07-31T04:26:07;14.90;99.90
4922;DHT22;16625;53.624;10.106;2023-07-31T04:28:34;13.70;99.90
4922;DHT22;16625;53.624;10.106;2023-07-31T04:31:01;14.90;99.90
4922;DHT22;16625;53.624;10.106;2023-07-31T04:33:29;15.80;99.90
4922;DHT22;16625;53.624;10.106;2023-07-31T04:35:56;14.90;99.90
4922;DHT22;16625;53.624;10.106;2023-07-31T04:38:23;14.90;99.90
4922;DHT22;16625;53.624;10.106;2023-07-31T04:40:50;14.90;99.90
4922;DHT22;16625;53.624;10.106;2023-07-31T04:43:17;15.20;99.90
4922;DHT22;16625;53.624;10.106;2023-07-31T04:45:45;15.00;99.90
4922;DHT22;16625;53.624;10.106;2023-07-31T04:48:13;15.40;99.90
4922;DHT22;16625;53.624;10.106;2023-07-31T04:50:42;15.70;99.90
4922;DHT22;16625;53.624;10.106;2023-07-31T04:53:09;15.00;99.90
4922;DHT22;16625;53.624;10.106;2023-07-31T04:55:36;15.80;99.90
4922;DHT22;16625;53.624;10.106;2023-07-31T04:58:03;15.20;99.90
4922;DHT22;16625;53.624;10.106;2023-07-31T05:00:30;15.00;99.90
4922;DHT22;16625;53.624;10.106;2023-07-31T05:02:57;15.00;99.90
4922;DHT22;16625;53.624;10.106;2023-07-31T05:05:24;15.40;99.90
4922;DHT22;16625;53.624;10.106;2023-07-31T05:07:53;15.50;99.90
4922;DHT22;16625;53.624;10.106;2023-07-31T05:10:20;15.10;99.90
4922;DHT22;16625;53.624;10.106;2023-07-31T05:12:47;15.40;99.90
4922;DHT22;16625;53.624;10.106;2023-07-31T05:15:13;15.90;99.90
4922;DHT22;16625;53.624;10.106;2023-07-31T05:17:42;15.20;99.90
4922;DHT22;16625;53.624;10.106;2023-07-31T05:20:09;15.10;99.90
4922;DHT22;16625;53.624;10.106;2023-07-31T05:22:37;15.10;99.90
4922;DHT22;16625;53.624;10.106;2023-07-31T05:25:06;15.10;99.90
4922;DHT22;16625;53.624;10.106;2023-07-31T05:27:33;15.10;99.90
4922;DHT22;16625;53.624;10.106;2023-07-31T05:30:00;15.10;99.90
4922;DHT22;16625;53.624;10.106;2023-07-31T05:32:27;15.60;99.90
4922;DHT22;16625;53.624;10.106;2023-07-31T05:34:54;15.70;99.90
4922;DHT22;16625;53.624;10.106;2023-07-31T05:37:21;15.10;99.90
4922;DHT22;16625;53.624;10.106;2023-07-31T05:39:49;15.20;99.90
4922;DHT22;16625;53.624;10.106;2023-07-31T05:42:17;15.20;99.90
4922;DHT22;16625;53.624;10.106;2023-07-31T05:44:44;15.20;99.90
4922;DHT22;16625;53.624;10.106;2023-07-31T05:47:12;16.10;99.90
4922;DHT22;16625;53.624;10.106;2023-07-31T05:49:39;15.40;99.90
4922;DHT22;16625;53.624;10.106;2023-07-31T05:52:07;15.50;99.90
4922;DHT22;16625;53.624;10.106;2023-07-31T05:54:34;15.30;99.90
4922;DHT22;16625;53.624;10.106;2023-07-31T05:57:01;15.30;99.90
4922;DHT22;16625;53.624;10.106;2023-07-31T05:59:29;15.70;99.90
4922;DHT22;16625;53.624;10.106;2023-07-31T06:01:58;15.40;99.90
4922;DHT22;16625;53.624;10.106;2023-07-31T06:04:25;15.40;99.90
4922;DHT22;16625;53.624;10.106;2023-07-31T06:06:52;15.50;99.90
4922;DHT22;16625;53.624;10.106;2023-07-31T06:09:19;15.50;99.90
4922;DHT22;16625;53.624;10.106;2023-07-31T06:11:46;15.90;99.90
4922;DHT22;16625;53.624;10.106;2023-07-31T06:14:14;15.50;99.90
4922;DHT22;16625;53.624;10.106;2023-07-31T06:16:42;16.10;99.90
4922;DHT22;16625;53.624;10.106;2023-07-31T06:19:10;15.90;99.90
4922;DHT22;16625;53.624;10.106;2023-07-31T06:21:37;15.70;99.90
4922;DHT22;16625;53.624;10.106;2023-07-31T06:24:05;15.90;99.90
4922;DHT22;16625;53.624;10.106;2023-07-31T06:26:32;15.90;99.90
4922;DHT22;16625;53.624;10.106;2023-07-31T06:28:59;15.90;99.90
4922;DHT22;16625;53.624;10.106;2023-07-31T06:31:26;16.60;99.90
4922;DHT22;16625;53.624;10.106;2023-07-31T06:33:54;15.80;99.90
4922;DHT22;16625;53.624;10.106;2023-07-31T06:36:21;15.90;99.90
4922;DHT22;16625;53.624;10.106;2023-07-31T06:38:49;15.90;99.90
4922;DHT22;16625;53.624;10.106;2023-07-31T06:41:15;15.80;99.90
4922;DHT22;16625;53.624;10.106;2023-07-31T06:43:42;15.90;99.90
4922;DHT22;16625;53.624;10.106;2023-07-31T06:46:12;16.00;99.90
4922;DHT22;16625;53.624;10.106;2023-07-31T06:48:39;15.90;99.90
4922;DHT22;16625;53.624;10.106;2023-07-31T06:51:08;15.90;99.90
4922;DHT22;16625;53.624;10.106;2023-07-31T06:53:35;16.40;99.90
4922;DHT22;16625;53.624;10.106;2023-07-31T06:56:02;16.00;99.90
4922;DHT22;16625;53.624;10.106;2023-07-31T06:58:29;16.00;99.90
4922;DHT22;16625;53.624;10.106;2023-07-31T07:00:56;16.30;99.90
4922;DHT22;16625;53.624;10.106;2023-07-31T07:03:24;16.10;99.90
4922;DHT22;16625;53.624;10.106;2023-07-31T07:05:51;16.10;99.90
4922;DHT22;16625;53.624;10.106;2023-07-31T07:08:19;16.00;99.90
4922;DHT22;16625;53.624;10.106;2023-07-31T07:10:46;16.00;99.90
4922;DHT22;16625;53.624;10.106;2023-07-31T07:13:13;16.10;99.90
4922;DHT22;16625;53.624;10.106;2023-07-31T07:15:43;16.30;99.90
4922;DHT22;16625;53.624;10.106;2023-07-31T07:18:10;16.20;99.90
4922;DHT22;16625;53.624;10.106;2023-07-31T07:20:37;16.10;99.90
4922;DHT22;16625;53.624;10.106;2023-07-31T07:23:09;16.30;99.90
4922;DHT22;16625;53.624;10.106;2023-07-31T07:25:39;16.10;99.90
4922;DHT22;16625;53.624;10.106;2023-07-31T07:28:06;16.10;99.90
4922;DHT22;16625;53.624;10.106;2023-07-31T07:30:33;16.20;99.90
4922;DHT22;16625;53.624;10.106;2023-07-31T07:33:00;15.60;99.90
4922;DHT22;16625;53.624;10.106;2023-07-31T07:35:27;16.10;99.90
4922;DHT22;16625;53.624;10.106;2023-07-31T07:37:54;16.40;99.90
4922;DHT22;16625;53.624;10.106;2023-07-31T07:40:25;16.10;99.90
4922;DHT22;16625;53.624;10.106;2023-07-31T07:42:54;16.10;99.90
4922;DHT22;16625;53.624;10.106;2023-07-31T07:45:21;16.00;99.90
4922;DHT22;16625;53.624;10.106;2023-07-31T07:47:48;16.00;99.90
4922;DHT22;16625;53.624;10.106;2023-07-31T07:50:15;15.20;99.90
4922;DHT22;16625;53.624;10.106;2023-07-31T07:52:42;16.00;99.90
4922;DHT22;16625;53.624;10.106;2023-07-31T07:55:09;16.40;99.90
4922;DHT22;16625;53.624;10.106;2023-07-31T07:57:36;15.80;99.90
4922;DHT22;16625;53.624;10.106;2023-07-31T08:00:06;15.90;99.90
4922;DHT22;16625;53.624;10.106;2023-07-31T08:02:36;16.10;99.90
4922;DHT22;16625;53.624;10.106;2023-07-31T08:05:03;16.10;99.90
4922;DHT22;16625;53.624;10.106;2023-07-31T08:07:30;16.20;99.90
4922;DHT22;16625;53.624;10.106;2023-07-31T08:09:57;16.30;99.90
4922;DHT22;16625;53.624;10.106;2023-07-31T08:12:24;16.40;99.90
4922;DHT22;16625;53.624;10.106;2023-07-31T08:14:51;16.60;99.90
4922;DHT22;16625;53.624;10.106;2023-07-31T08:17:20;16.70;99.90
4922;DHT22;16625;53.624;10.106;2023-07-31T08:19:47;16.90;99.90
4922;DHT22;16625;53.624;10.106;2023-07-31T08:22:14;17.00;99.90
4922;DHT22;16625;53.624;10.106;2023-07-31T08:24:41;17.10;99.90
4922;DHT22;16625;53.624;10.106;2023-07-31T08:27:08;17.20;99.90
4922;DHT22;16625;53.624;10.106;2023-07-31T08:29:35;17.30;99.90
4922;DHT22;16625;53.624;10.106;2023-07-31T08:32:02;17.70;99.90
4922;DHT22;16625;53.624;10.106;2023-07-31T08:34:30;17.60;99.90
4922;DHT22;16625;53.624;10.106;2023-07-31T08:36:57;17.70;99.90
4922;DHT22;16625;53.624;10.106;2023-07-31T08:39:24;18.00;99.90
4922;DHT22;16625;53.624;10.106;2023-07-31T08:41:51;18.20;99.90
4922;DHT22;16625;53.624;10.106;2023-07-31T08:44:24;18.20;99.90
4922;DHT22;16625;53.624;10.106;2023-07-31T08:46:51;18.30;99.90
4922;DHT22;16625;53.624;10.106;2023-07-31T08:49:20;18.30;99.90
4922;DHT22;16625;53.624;10.106;2023-07-31T08:51:50;18.20;99.90
4922;DHT22;16625;53.624;10.106;2023-07-31T08:54:17;18.30;99.90
4922;DHT22;16625;53.624;10.106;2023-07-31T08:56:44;18.50;99.90
4922;DHT22;16625;53.624;10.106;2023-07-31T08:59:12;18.80;99.90
4922;DHT22;16625;53.624;10.106;2023-07-31T09:01:50;18.70;99.90
4922;DHT22;16625;53.624;10.106;2023-07-31T09:04:23;18.70;99.90
4922;DHT22;16625;53.624;10.106;2023-07-31T09:06:57;18.50;99.90
4922;DHT22;16625;53.624;10.106;2023-07-31T09:09:26;18.90;99.90
4922;DHT22;16625;53.624;10.106;2023-07-31T09:11:53;18.60;99.90
4922;DHT22;16625;53.624;10.106;2023-07-31T09:14:24;18.60;99.90
4922;DHT22;16625;53.624;10.106;2023-07-31T09:16:53;18.50;99.90
4922;DHT22;16625;53.624;10.106;2023-07-31T09:19:27;18.20;99.90
4922;DHT22;16625;53.624;10.106;2023-07-31T09:21:55;18.10;99.90
4922;DHT22;16625;53.624;10.106;2023-07-31T09:24:26;18.00;99.90
4922;DHT22;16625;53.624;10.106;2023-07-31T09:26:54;18.40;99.90
4922;DHT22;16625;53.624;10.106;2023-07-31T09:29:21;17.70;99.90
4922;DHT22;16625;53.624;10.106;2023-07-31T09:31:48;17.80;99.90
4922;DHT22;16625;53.624;10.106;2023-07-31T09:34:15;18.30;99.90
4922;DHT22;16625;53.624;10.106;2023-07-31T09:36:43;17.60;99.90
4922;DHT22;16625;53.624;10.106;2023-07-31T09:39:12;17.80;99.90
4922;DHT22;16625;53.624;10.106;2023-07-31T09:41:41;18.00;99.90
4922;DHT22;16625;53.624;10.106;2023-07-31T09:44:08;18.10;99.90
4922;DHT22;16625;53.624;10.106;2023-07-31T09:46:37;18.00;99.90
4922;DHT22;16625;53.624;10.106;2023-07-31T09:49:08;18.00;99.90
4922;DHT22;16625;53.624;10.106;2023-07-31T09:51:36;18.00;99.90
4922;DHT22;16625;53.624;10.106;2023-07-31T09:54:10;18.30;99.90
4922;DHT22;16625;53.624;10.106;2023-07-31T09:56:43;18.30;99.90
4922;DHT22;16625;53.624;10.106;2023-07-31T09:59:11;18.20;99.90
4922;DHT22;16625;53.624;10.106;2023-07-31T10:01:40;18.30;99.90
4922;DHT22;16625;53.624;10.106;2023-07-31T10:04:08;18.30;99.90
4922;DHT22;16625;53.624;10.106;2023-07-31T10:06:36;18.40;99.90
4922;DHT22;16625;53.624;10.106;2023-07-31T10:09:06;18.50;99.90
4922;DHT22;16625;53.624;10.106;2023-07-31T10:11:42;18.20;99.90
4922;DHT22;16625;53.624;10.106;2023-07-31T10:14:10;18.30;99.90
4922;DHT22;16625;53.624;10.106;2023-07-31T10:16:38;18.40;99.90
4922;DHT22;16625;53.624;10.106;2023-07-31T10:19:06;18.20;99.90
4922;DHT22;16625;53.624;10.106;2023-07-31T10:21:34;18.10;99.90
4922;DHT22;16625;53.624;10.106;2023-07-31T10:24:03;18.20;99.90
4922;DHT22;16625;53.624;10.106;2023-07-31T10:26:31;18.00;99.90
4922;DHT22;16625;53.624;10.106;2023-07-31T10:29:00;18.00;99.90
4922;DHT22;16625;53.624;10.106;2023-07-31T10:31:27;17.90;99.90
4922;DHT22;16625;53.624;10.106;2023-07-31T10:33:55;18.00;99.90
4922;DHT22;16625;53.624;10.106;2023-07-31T10:36:22;18.20;99.90
4922;DHT22;16625;53.624;10.106;2023-07-31T10:38:49;18.20;99.90
4922;DHT22;16625;53.624;10.106;2023-07-31T10:41:17;18.40;99.90
4922;DHT22;16625;53.624;10.106;2023-07-31T10:43:46;18.50;99.90
4922;DHT22;16625;53.624;10.106;2023-07-31T10:46:14;18.50;99.90
4922;DHT22;16625;53.624;10.106;2023-07-31T10:48:42;18.40;99.90
4922;DHT22;16625;53.624;10.106;2023-07-31T10:51:10;18.30;99.70
4922;DHT22;16625;53.624;10.106;2023-07-31T10:53:38;18.30;99.90
4922;DHT22;16625;53.624;10.106;2023-07-31T10:56:06;18.30;99.90
4922;DHT22;16625;53.624;10.106;2023-07-31T10:58:34;18.00;99.90
4922;DHT22;16625;53.624;10.106;2023-07-31T11:01:02;17.90;99.90
4922;DHT22;16625;53.624;10.106;2023-07-31T11:03:46;17.70;99.90
4922;DHT22;16625;53.624;10.106;2023-07-31T11:06:14;17.60;99.90
4922;DHT22;16625;53.624;10.106;2023-07-31T11:08:43;17.60;99.90
4922;DHT22;16625;53.624;10.106;2023-07-31T11:11:11;17.40;99.90
4922;DHT22;16625;53.624;10.106;2023-07-31T11:13:43;17.40;99.90
4922;DHT22;16625;53.624;10.106;2023-07-31T11:16:10;17.40;99.90
4922;DHT22;16625;53.624;10.106;2023-07-31T11:18:39;17.50;99.90
4922;DHT22;16625;53.624;10.106;2023-07-31T11:21:09;17.40;99.90
4922;DHT22;16625;53.624;10.106;2023-07-31T11:23:38;17.50;99.90
4922;DHT22;16625;53.624;10.106;2023-07-31T11:26:05;17.60;99.90
4922;DHT22;16625;53.624;10.106;2023-07-31T11:28:34;17.70;99.90
4922;DHT22;16625;53.624;10.106;2023-07-31T11:31:01;17.90;99.90
4922;DHT22;16625;53.624;10.106;2023-07-31T11:33:29;18.40;99.90
4922;DHT22;16625;53.624;10.106;2023-07-31T11:35:56;17.90;99.90
4922;DHT22;16625;53.624;10.106;2023-07-31T11:38:25;17.90;99.90
4922;DHT22;16625;53.624;10.106;2023-07-31T11:40:53;18.00;99.90
4922;DHT22;16625;53.624;10.106;2023-07-31T11:43:21;17.70;99.90
4922;DHT22;16625;53.624;10.106;2023-07-31T11:45:49;17.60;99.90
4922;DHT22;16625;53.624;10.106;2023-07-31T11:48:20;17.60;99.90
4922;DHT22;16625;53.624;10.106;2023-07-31T11:50:49;17.60;99.90
4922;DHT22;16625;53.624;10.106;2023-07-31T11:53:18;18.00;99.90
4922;DHT22;16625;53.624;10.106;2023-07-31T11:55:47;17.50;99.90
4922;DHT22;16625;53.624;10.106;2023-07-31T11:58:15;17.60;99.90
4922;DHT22;16625;53.624;10.106;2023-07-31T12:00:43;17.60;99.90
4922;DHT22;16625;53.624;10.106;2023-07-31T12:03:10;17.90;99.90
4922;DHT22;16625;53.624;10.106;2023-07-31T12:05:37;18.00;99.90
4922;DHT22;16625;53.624;10.106;2023-07-31T12:08:09;17.90;99.90
4922;DHT22;16625;53.624;10.106;2023-07-31T12:10:37;18.00;99.90
4922;DHT22;16625;53.624;10.106;2023-07-31T12:13:10;18.00;99.90
4922;DHT22;16625;53.624;10.106;2023-07-31T12:15:40;18.00;99.90
4922;DHT22;16625;53.624;10.106;2023-07-31T12:18:09;18.10;99.90
4922;DHT22;16625;53.624;10.106;2023-07-31T12:20:41;18.30;99.90
4922;DHT22;16625;53.624;10.106;2023-07-31T12:23:13;18.40;99.90
4922;DHT22;16625;53.624;10.106;2023-07-31T12:25:41;18.60;99.90
4922;DHT22;16625;53.624;10.106;2023-07-31T12:28:09;18.60;99.90
4922;DHT22;16625;53.624;10.106;2023-07-31T12:30:39;18.60;99.90
4922;DHT22;16625;53.624;10.106;2023-07-31T12:33:07;18.70;44.80
4922;DHT22;16625;53.624;10.106;2023-07-31T12:35:41;18.90;1.00
4922;DHT22;16625;53.624;10.106;2023-07-31T12:38:08;18.90;1.00
4922;DHT22;16625;53.624;10.106;2023-07-31T12:40:37;18.90;50.30
4922;DHT22;16625;53.624;10.106;2023-07-31T12:43:04;18.90;1.00
4922;DHT22;16625;53.624;10.106;2023-07-31T12:45:32;18.80;1.00
4922;DHT22;16625;53.624;10.106;2023-07-31T12:48:00;18.70;1.00
4922;DHT22;16625;53.624;10.106;2023-07-31T12:50:27;18.60;81.00
4922;DHT22;16625;53.624;10.106;2023-07-31T12:52:54;18.50;1.00
4922;DHT22;16625;53.624;10.106;2023-07-31T12:55:21;18.30;1.00
4922;DHT22;16625;53.624;10.106;2023-07-31T12:57:48;18.20;53.70
4922;DHT22;16625;53.624;10.106;2023-07-31T13:00:15;18.20;1.00
4922;DHT22;16625;53.624;10.106;2023-07-31T13:02:44;18.10;99.90
4922;DHT22;16625;53.624;10.106;2023-07-31T13:05:10;18.20;99.90
4922;DHT22;16625;53.624;10.106;2023-07-31T13:07:38;18.20;99.90
4922;DHT22;16625;53.624;10.106;2023-07-31T13:10:06;18.20;99.90
4922;DHT22;16625;53.624;10.106;2023-07-31T13:12:34;18.30;99.90
4922;DHT22;16625;53.624;10.106;2023-07-31T13:15:01;18.40;50.90
4922;DHT22;16625;53.624;10.106;2023-07-31T13:17:27;18.40;39.80
4922;DHT22;16625;53.624;10.106;2023-07-31T13:19:56;18.30;99.90
4922;DHT22;16625;53.624;10.106;2023-07-31T13:22:22;18.30;99.90
4922;DHT22;16625;53.624;10.106;2023-07-31T13:24:49;18.20;99.90
4922;DHT22;16625;53.624;10.106;2023-07-31T13:27:16;18.20;99.90
4922;DHT22;16625;53.624;10.106;2023-07-31T13:29:45;18.40;99.90
4922;DHT22;16625;53.624;10.106;2023-07-31T13:32:12;18.00;99.90
4922;DHT22;16625;53.624;10.106;2023-07-31T13:34:39;18.30;99.90
4922;DHT22;16625;53.624;10.106;2023-07-31T13:37:07;18.10;99.90
4922;DHT22;16625;53.624;10.106;2023-07-31T13:39:34;18.10;99.90
4922;DHT22;16625;53.624;10.106;2023-07-31T13:42:02;18.20;99.90
4922;DHT22;16625;53.624;10.106;2023-07-31T13:44:32;18.10;99.90
4922;DHT22;16625;53.624;10.106;2023-07-31T13:46:59;18.00;99.90
4922;DHT22;16625;53.624;10.106;2023-07-31T13:49:25;18.00;99.90
4922;DHT22;16625;53.624;10.106;2023-07-31T13:51:52;18.20;99.90
4922;DHT22;16625;53.624;10.106;2023-07-31T13:54:21;18.00;99.90
4922;DHT22;16625;53.624;10.106;2023-07-31T13:56:48;18.00;99.90
4922;DHT22;16625;53.624;10.106;2023-07-31T13:59:15;18.00;99.90
4922;DHT22;16625;53.624;10.106;2023-07-31T14:01:43;18.00;99.90
4922;DHT22;16625;53.624;10.106;2023-07-31T14:04:10;17.80;99.90
4922;DHT22;16625;53.624;10.106;2023-07-31T14:06:37;17.70;99.90
4922;DHT22;16625;53.624;10.106;2023-07-31T14:09:03;17.40;99.90
4922;DHT22;16625;53.624;10.106;2023-07-31T14:11:32;17.30;99.90
4922;DHT22;16625;53.624;10.106;2023-07-31T14:13:59;17.90;99.90
4922;DHT22;16625;53.624;10.106;2023-07-31T14:16:27;17.10;99.90
4922;DHT22;16625;53.624;10.106;2023-07-31T14:18:54;17.20;99.90
4922;DHT22;16625;53.624;10.106;2023-07-31T14:21:21;17.40;99.90
4922;DHT22;16625;53.624;10.106;2023-07-31T14:23:48;17.50;99.90
4922;DHT22;16625;53.624;10.106;2023-07-31T14:26:15;17.40;99.90
4922;DHT22;16625;53.624;10.106;2023-07-31T14:28:43;17.60;99.90
4922;DHT22;16625;53.624;10.106;2023-07-31T14:31:10;17.40;99.90
4922;DHT22;16625;53.624;10.106;2023-07-31T14:33:37;17.40;99.90
4922;DHT22;16625;53.624;10.106;2023-07-31T14:36:05;17.20;99.90
4922;DHT22;16625;53.624;10.106;2023-07-31T14:38:32;17.10;99.90
4922;DHT22;16625;53.624;10.106;2023-07-31T14:40:59;17.10;99.90
4922;DHT22;16625;53.624;10.106;2023-07-31T14:43:26;17.50;99.90
4922;DHT22;16625;53.624;10.106;2023-07-31T14:45:54;17.00;99.90
4922;DHT22;16625;53.624;10.106;2023-07-31T14:48:24;16.90;99.90
4922;DHT22;16625;53.624;10.106;2023-07-31T14:50:52;17.20;99.90
4922;DHT22;16625;53.624;10.106;2023-07-31T14:53:18;16.90;99.90
4922;DHT22;16625;53.624;10.106;2023-07-31T14:55:45;17.50;99.90
4922;DHT22;16625;53.624;10.106;2023-07-31T14:58:12;17.40;99.90
4922;DHT22;16625;53.624;10.106;2023-07-31T15:00:40;17.10;99.90
4922;DHT22;16625;53.624;10.106;2023-07-31T15:03:08;17.70;99.90
4922;DHT22;16625;53.624;10.106;2023-07-31T15:05:35;17.30;99.90
4922;DHT22;16625;53.624;10.106;2023-07-31T15:08:03;17.60;99.90
4922;DHT22;16625;53.624;10.106;2023-07-31T15:10:30;17.30;99.90
4922;DHT22;16625;53.624;10.106;2023-07-31T15:12:56;17.40;99.90
4922;DHT22;16625;53.624;10.106;2023-07-31T15:15:24;17.20;99.90
4922;DHT22;16625;53.624;10.106;2023-07-31T15:17:51;17.20;99.90
4922;DHT22;16625;53.624;10.106;2023-07-31T15:20:19;17.30;99.90
4922;DHT22;16625;53.624;10.106;2023-07-31T15:22:46;17.90;99.90
4922;DHT22;16625;53.624;10.106;2023-07-31T15:25:13;17.00;99.90
4922;DHT22;16625;53.624;10.106;2023-07-31T15:27:41;16.90;99.90
4922;DHT22;16625;53.624;10.106;2023-07-31T15:30:09;17.30;99.90
4922;DHT22;16625;53.624;10.106;2023-07-31T15:32:37;16.30;99.90
4922;DHT22;16625;53.624;10.106;2023-07-31T15:35:05;16.90;99.90
4922;DHT22;16625;53.624;10.106;2023-07-31T15:37:33;16.80;99.90